Bay State Village, Massachusetts
Current Conditions -  °F | °C
As of 12:58 AM on Saturday 20 Dec 2014 (Local Time) from KCEF Reporting Station
Clear Clear  
Wind Chill: 18°   Ceiling: Unl
Heat Index: 26°   Visibility: 10mi
Dew Point: 18°   Wind: 7mph
Humidity: 73%   Direction: 360°N
Pressure: 30.17"   Gusts: NA
Location:  42.3249°N, 72.6582°W
Report Text: KCEF 200558Z AUTO 36006KT 10SM CLR M03/M08 A3017 RMK AO2 SLP226 T10341076 11004 21039 52016
Loading
Personal Weather Stations






























Interactive Weather Map New forecast layout! Learn more

10-Day Weather Forecast

Advertisements
Track Severe Weather on mobile